Kezdőlap
METAR-TAF:

METAR-TAF

Repülőterek :

Longyearbyen, Norvégia

földrajzi szélesség: 78-15N, földrajzi hosszúság: 015-28E, magasság: 2 m

Jelenlegi meteorológiai megfigyelések

A jelentés 21 perccel ezelõtt készült, 11:20 UTC
Szélcsend
Hőmérséklet -1°C
Páratartalom 80%
Légköri nyomás 998 hPa
Látótávolság 10 km, vagy több
Kevés felhő 2000 lábon
Szórványos felhőzet 3500 lábon
Szakadozott felhőzet 6000 lábon

METAR: ENSB 181120Z 00000KT 9999 FEW020 SCT035 BKN060 M01/M04 Q0998 NOSIG RMK WIND 1400FT 11003KT

Idő: 13:41 (11:41 UTC)

Előrejelzés

Az előrejelzés 18-én 06 óra UTC és 19-én 06 óra UTC között érvényes
Kelet-délkeleti szél 9 kt
Látótávolság 10 km, vagy több
Szórványos felhőzet 3000 lábon

TAF: ENSB 1806/1906 12009KT 9999 SCT030

Meteorológiai megfigyelések és előrejelzések több, mint 4000 repülőtéren (METAR és TAF jelentéseket).

A térképen piros és sárga pontok jelzik az elérhető meteorológiai állomásokat.

Mozgassa az egeret a pont fölött, hogy megjelenjen az állomás neve.

Azután kattintson az időjárási megfigyelések és előrejelzések megtekintéséhez.

A térkép megváltoztatása: kattintson a fekete keresztel jelölt zöld gombra ráközelítéshez, a vonallal jelölt zöld gombra távolításhoz, vagy a zöld nyilakra a szomszédos térképek eléréséhez.


METAR-TAF: